Youngwood, Pennsylvania
Current Conditions -  °F | °C
As of 1:47 PM on Tuesday 27 Jan 2015 (Local Time) from KLBE Reporting Station
Light Snow Light Snow  
Wind Chill: 13°   Ceiling: 1500
Heat Index: 23°   Visibility: 2mi
Dew Point: 18°   Wind: 9mph
Humidity: 80%   Direction: 290°WNW
Pressure: 29.93"   Gusts: NA
Location:  40.24°N, 79.58°W
Report Text: KLBE 271847Z 29008KT 2SM -SN OVC015 M05/M08 A2993
Loading
Personal Weather Stations






























Interactive Weather Map New forecast layout! Learn more

10-Day Weather Forecast

Advertisements
Track Severe Weather on mobile